Аэропорт: Сыктывкар. Сыктывкар

ICAO: UUYY

METAR:
2018/05/20 19:30
UUYY 201930Z 25002MPS CAVOK 04/01 Q1019 R36/CLRD61 NOSIG RMK QFE755/1007
METAR:
2018/05/20 18:27
TAF TAF UUYY 201700Z 2018/2118 32003G08MPS 9999 BKN011 BKN020CB 
      BECMG 2021/2023 28003MPS 
      TEMPO 2100/2106 30005MPS 3100 -SHRA BR BKN015CB